Wichita, KS (67277)

10:17 PM CST on December 08, 2016 (GMT -0600)
KMUW - Old Town | | Change Station

Elev 1322 ft 37.69 °N, 97.33 °W | Updated 16 seconds ago

Clear
Clear
21.2 °F
Feels Like 21 °F
N
0.0
Wind Variable Wind from NW
Gusts 0.0 mph

Today
High -- | Low -- °F
--% Chance of Precip.
Yesterday
High -- | Low -- °F
Precip. -- in
Pressure 30.72 in
Visibility 10.0 miles
Clouds Clear
Windchill 21 °F
Dew Point -11 °F
Humidity 23%
Rainfall 0.00 in
Snow Depth Not available.
7:32 AM 5:10 PM
Waxing Gibbous, 70% visible
METAR KICT 090353Z 01004KT 10SM CLR M07/M12 A3066 RMK AO2 SLP403 T10671122
Pressure 30.72 in
Visibility 10.0 miles
Clouds Clear
Windchill 21 °F
Dew Point -11 °F
Humidity 23%
Rainfall 0.00 in
Snow Depth Not available.
7:32 AM 5:10 PM
Waxing Gibbous, 70% visible
METAR KICT 090353Z 01004KT 10SM CLR M07/M12 A3066 RMK AO2 SLP403 T10671122

10-Day Weather Forecast

Almanac

Astronomy

Dec. 08, 2016 Rise Set
Actual Time
Civil Twilight
Nautical Twilight
Astronomical Twilight
Moon
Length of Visible Light
Length of Day
Tomorrow will be .
, % of the Moon is Illuminated

Today's Extremes

State Highs State Lows

Community

WunderPhotos

Upload Photos

1,956,370 photos uploaded!

WunderBlog® & News

Nearby

Air Quality

  Air Quality AQ Index Pollutant
Not available.

Snow Depth

Station Depth Elevation

Earthquake Activity

City Distance Mag. Time & Date
Minimum magnitude displayed is 2.5.

Coastal Water Temperatures

Place Temperature

Stations

Nearby Weather Stations

Station Location Temp. Windchill Dew Point Humidity Wind Precip. Elev Updated Type
                   

Watches & Warnings

There are currently no watches in effect.